Anita, Pennsylvania
Current Conditions -  °F | °C
As of 6:53 PM on Saturday 25 Oct 2014 (Local Time) from KDUJ Reporting Station
Scattered Clouds Scattered Clouds  
Wind Chill: 58°   Ceiling: Unl
Heat Index: 58°   Visibility: 10mi
Dew Point: 49°   Wind: 14mph
Humidity: 72%   Direction: 240°WSW
Pressure: 29.69"   Gusts: 26mph
Location:  41°N, 78.96°W
Report Text: KDUJ 252253Z AUTO 24012G23KT 10SM FEW036 SCT065 14/09 A2969 RMK AO2 SLP055 T01440094 $
Loading
Personal Weather Stations






























Interactive Weather Map
Tropical Storm Tracking
New forecast layout! Learn more

10-Day Weather Forecast

Advertisements
Track Severe Weather on mobile